Etusivu
METAR-TAF:

METAR-TAF

Lentoasemat :

Stord, Norja

Leveyspiiri: 59-48N, Pituuspiiri: 005-21E, korkeus merenpinnasta: 49 m

Tämänhetkinen sää

Tämä raportti tehtiin 36 minuuttia sitten, kello 14.50 UTC
Tuuli 5 kn pohjoisesta
Lämpötila 10°C
Kosteus 93%
Ilmanpaine 1010 hPa
Näkyvyys 10 km tai enemmän
Muutamia pilviä 800 ft:n korkeudessa
Hajanaisia pilviä 2400 ft:n korkeudessa
Hajonneita pilviä 5000 ft:n korkeudessa

METAR: ENSO 201450Z 36005KT 9999 FEW008 SCT024 BKN050 10/09 Q1010

Aika: 17:26 (15:26 UTC)

Sääennuste

Tämä raportti tehtiin 1 tunti ja 26 minuuttia sitten, kello 14.00 UTC
Ennuste voimassa 20. päivästä klo 15 UTC - 20. päivään klo 18 UTC
Tuuli 12 kn pohjoisen/luoteesta
Näkyvyys 10 km tai enemmän
Muutamia pilviä 700 ft:n korkeudessa
Hajonneita pilviä 2000 ft:n korkeudessa
heikkoa sadetta

TAF: ENSO 201400Z 2015/2018 33012KT 9999 -RA FEW007 BKN020

Säähavainnot ja -ennusteet yli 4000 lentoasemalta (METAR- ja TAF-raportit).

Käytössä olevat sääasemat on merkitty karttaan keltaisilla ja punaisilla pisteillä.

Aseta hiiri pisteen päälle nähdäksesi sääaseman nimen.

Klikkaa sitten nähdäksesi säähavainnot ja -ennusteet.

Kartan vaihtaminen: klikkaa mustalla rastilla varustettuja vihreitä pisteitä, niin voit zoomata sisään; viivalla varustettua vihreää pistettä, niin voit zoomata ulos tai vihreitä nuolia, niin pääset viereisille kartoille.


METAR-TAF: